sensor_id;sensor_type;location;lat;lon;timestamp;P1;durP1;ratioP1;P2;durP2;ratioP2
68479;SDS011;55469;48.934;12.050;2022-09-09T00:04:50;1.77;;;1.00;;
68479;SDS011;55469;48.934;12.050;2022-09-09T00:07:12;2.83;;;1.08;;
68479;SDS011;55469;48.934;12.050;2022-09-09T00:09:47;1.40;;;0.90;;
68479;SDS011;55469;48.934;12.050;2022-09-09T00:15:34;1.05;;;0.80;;
68479;SDS011;55469;48.934;12.050;2022-09-09T00:21:11;0.82;;;0.80;;
68479;SDS011;55469;48.934;12.050;2022-09-09T00:29:09;1.33;;;1.10;;
68479;SDS011;55469;48.934;12.050;2022-09-09T00:31:50;1.15;;;1.00;;
68479;SDS011;55469;48.934;12.050;2022-09-09T00:34:22;0.93;;;0.90;;
68479;SDS011;55469;48.934;12.050;2022-09-09T00:36:52;0.90;;;0.90;;
68479;SDS011;55469;48.934;12.050;2022-09-09T00:41:54;3.28;;;1.10;;
68479;SDS011;55469;48.934;12.050;2022-09-09T01:01:35;1.30;;;1.20;;
68479;SDS011;55469;48.934;12.050;2022-09-09T01:04:04;1.50;;;1.20;;
68479;SDS011;55469;48.934;12.050;2022-09-09T01:06:41;1.27;;;1.10;;
68479;SDS011;55469;48.934;12.050;2022-09-09T01:17:17;1.83;;;1.15;;
68479;SDS011;55469;48.934;12.050;2022-09-09T01:27:50;1.23;;;1.20;;
68479;SDS011;55469;48.934;12.050;2022-09-09T01:30:21;1.67;;;1.33;;
68479;SDS011;55469;48.934;12.050;2022-09-09T01:32:53;1.30;;;1.20;;
68479;SDS011;55469;48.934;12.050;2022-09-09T01:38:16;1.40;;;1.30;;
68479;SDS011;55469;48.934;12.050;2022-09-09T01:40:43;1.30;;;1.20;;
68479;SDS011;55469;48.934;12.050;2022-09-09T01:43:09;1.40;;;1.30;;
68479;SDS011;55469;48.934;12.050;2022-09-09T01:45:35;1.58;;;1.20;;
68479;SDS011;55469;48.934;12.050;2022-09-09T01:48:02;2.03;;;1.58;;
68479;SDS011;55469;48.934;12.050;2022-09-09T01:50:28;1.95;;;1.80;;
68479;SDS011;55469;48.934;12.050;2022-09-09T01:52:55;1.77;;;1.67;;
68479;SDS011;55469;48.934;12.050;2022-09-09T01:55:28;2.25;;;1.92;;
68479;SDS011;55469;48.934;12.050;2022-09-09T02:00:29;1.85;;;1.75;;
68479;SDS011;55469;48.934;12.050;2022-09-09T02:05:49;2.22;;;1.70;;
68479;SDS011;55469;48.934;12.050;2022-09-09T02:11:18;1.80;;;1.70;;
68479;SDS011;55469;48.934;12.050;2022-09-09T02:13:47;1.60;;;1.50;;
68479;SDS011;55469;48.934;12.050;2022-09-09T02:16:27;1.90;;;1.80;;
68479;SDS011;55469;48.934;12.050;2022-09-09T02:19:27;2.78;;;2.03;;
68479;SDS011;55469;48.934;12.050;2022-09-09T02:21:58;2.00;;;1.90;;
68479;SDS011;55469;48.934;12.050;2022-09-09T02:24:26;2.17;;;1.98;;
68479;SDS011;55469;48.934;12.050;2022-09-09T02:26:55;1.50;;;1.40;;
68479;SDS011;55469;48.934;12.050;2022-09-09T02:29:25;1.42;;;1.33;;
68479;SDS011;55469;48.934;12.050;2022-09-09T02:32:00;1.30;;;1.20;;
68479;SDS011;55469;48.934;12.050;2022-09-09T02:34:31;2.10;;;1.95;;
68479;SDS011;55469;48.934;12.050;2022-09-09T02:37:04;1.98;;;1.80;;
68479;SDS011;55469;48.934;12.050;2022-09-09T02:39:33;2.10;;;2.00;;
68479;SDS011;55469;48.934;12.050;2022-09-09T02:41:59;2.03;;;1.92;;
68479;SDS011;55469;48.934;12.050;2022-09-09T02:44:25;2.38;;;2.17;;
68479;SDS011;55469;48.934;12.050;2022-09-09T02:58:16;1.98;;;1.88;;
68479;SDS011;55469;48.934;12.050;2022-09-09T03:00:45;2.30;;;2.10;;
68479;SDS011;55469;48.934;12.050;2022-09-09T03:03:13;1.42;;;1.33;;
68479;SDS011;55469;48.934;12.050;2022-09-09T03:05:41;1.33;;;1.23;;
68479;SDS011;55469;48.934;12.050;2022-09-09T03:08:08;1.40;;;1.30;;
68479;SDS011;55469;48.934;12.050;2022-09-09T03:10:34;1.60;;;1.50;;
68479;SDS011;55469;48.934;12.050;2022-09-09T03:13:01;1.40;;;1.30;;
68479;SDS011;55469;48.934;12.050;2022-09-09T03:15:30;1.75;;;1.65;;
68479;SDS011;55469;48.934;12.050;2022-09-09T03:17:57;2.13;;;1.27;;
68479;SDS011;55469;48.934;12.050;2022-09-09T03:20:24;1.17;;;1.10;;
68479;SDS011;55469;48.934;12.050;2022-09-09T03:22:55;2.35;;;2.03;;
68479;SDS011;55469;48.934;12.050;2022-09-09T03:25:22;1.85;;;1.70;;
68479;SDS011;55469;48.934;12.050;2022-09-09T03:27:52;2.55;;;2.35;;
68479;SDS011;55469;48.934;12.050;2022-09-09T03:30:23;1.85;;;1.75;;
68479;SDS011;55469;48.934;12.050;2022-09-09T03:32:51;1.80;;;1.70;;
68479;SDS011;55469;48.934;12.050;2022-09-09T03:35:17;1.42;;;1.33;;
68479;SDS011;55469;48.934;12.050;2022-09-09T03:37:43;1.00;;;1.00;;
68479;SDS011;55469;48.934;12.050;2022-09-09T03:40:09;1.20;;;1.10;;
68479;SDS011;55469;48.934;12.050;2022-09-09T03:42:36;1.67;;;1.58;;
68479;SDS011;55469;48.934;12.050;2022-09-09T03:45:03;1.92;;;1.80;;
68479;SDS011;55469;48.934;12.050;2022-09-09T03:47:31;1.98;;;1.88;;
68479;SDS011;55469;48.934;12.050;2022-09-09T03:49:58;1.88;;;1.77;;
68479;SDS011;55469;48.934;12.050;2022-09-09T03:52:23;1.73;;;1.50;;
68479;SDS011;55469;48.934;12.050;2022-09-09T03:54:51;1.40;;;1.30;;
68479;SDS011;55469;48.934;12.050;2022-09-09T03:57:17;1.67;;;1.55;;
68479;SDS011;55469;48.934;12.050;2022-09-09T03:59:44;1.15;;;1.05;;
68479;SDS011;55469;48.934;12.050;2022-09-09T04:02:10;1.52;;;1.20;;
68479;SDS011;55469;48.934;12.050;2022-09-09T04:04:35;1.40;;;1.30;;
68479;SDS011;55469;48.934;12.050;2022-09-09T04:07:01;2.00;;;1.90;;
68479;SDS011;55469;48.934;12.050;2022-09-09T04:09:27;1.90;;;1.80;;
68479;SDS011;55469;48.934;12.050;2022-09-09T04:11:52;1.80;;;1.70;;
68479;SDS011;55469;48.934;12.050;2022-09-09T04:14:19;1.63;;;1.52;;
68479;SDS011;55469;48.934;12.050;2022-09-09T04:16:45;2.58;;;1.50;;
68479;SDS011;55469;48.934;12.050;2022-09-09T04:19:11;1.17;;;1.17;;
68479;SDS011;55469;48.934;12.050;2022-09-09T04:21:38;1.70;;;1.60;;
68479;SDS011;55469;48.934;12.050;2022-09-09T04:24:08;1.35;;;1.25;;
68479;SDS011;55469;48.934;12.050;2022-09-09T04:26:34;1.27;;;1.17;;
68479;SDS011;55469;48.934;12.050;2022-09-09T04:29:01;1.10;;;1.00;;
68479;SDS011;55469;48.934;12.050;2022-09-09T04:31:29;1.70;;;1.60;;
68479;SDS011;55469;48.934;12.050;2022-09-09T04:33:55;1.40;;;1.30;;
68479;SDS011;55469;48.934;12.050;2022-09-09T04:36:20;2.10;;;1.90;;
68479;SDS011;55469;48.934;12.050;2022-09-09T04:38:46;1.40;;;1.30;;
68479;SDS011;55469;48.934;12.050;2022-09-09T04:41:14;1.40;;;1.30;;
68479;SDS011;55469;48.934;12.050;2022-09-09T04:43:41;1.15;;;1.13;;
68479;SDS011;55469;48.934;12.050;2022-09-09T04:46:07;1.05;;;1.05;;
68479;SDS011;55469;48.934;12.050;2022-09-09T04:48:34;1.10;;;1.10;;
68479;SDS011;55469;48.934;12.050;2022-09-09T04:51:02;0.90;;;0.90;;
68479;SDS011;55469;48.934;12.050;2022-09-09T04:53:30;1.20;;;1.20;;
68479;SDS011;55469;48.934;12.050;2022-09-09T04:56:03;1.52;;;1.42;;
68479;SDS011;55469;48.934;12.050;2022-09-09T04:58:32;1.95;;;1.77;;
68479;SDS011;55469;48.934;12.050;2022-09-09T05:01:08;1.20;;;1.20;;
68479;SDS011;55469;48.934;12.050;2022-09-09T05:03:36;1.40;;;1.23;;
68479;SDS011;55469;48.934;12.050;2022-09-09T05:06:04;0.98;;;0.98;;
68479;SDS011;55469;48.934;12.050;2022-09-09T05:08:33;1.58;;;1.48;;
68479;SDS011;55469;48.934;12.050;2022-09-09T05:10:59;0.90;;;0.90;;
68479;SDS011;55469;48.934;12.050;2022-09-09T05:13:26;1.08;;;0.90;;
68479;SDS011;55469;48.934;12.050;2022-09-09T05:15:53;0.98;;;0.98;;
68479;SDS011;55469;48.934;12.050;2022-09-09T05:18:19;0.98;;;0.95;;
68479;SDS011;55469;48.934;12.050;2022-09-09T05:20:47;1.80;;;1.50;;
68479;SDS011;55469;48.934;12.050;2022-09-09T05:23:14;1.30;;;1.20;;
68479;SDS011;55469;48.934;12.050;2022-09-09T05:25:39;1.55;;;1.45;;
68479;SDS011;55469;48.934;12.050;2022-09-09T05:28:05;1.30;;;1.20;;
68479;SDS011;55469;48.934;12.050;2022-09-09T05:30:32;1.10;;;1.02;;
68479;SDS011;55469;48.934;12.050;2022-09-09T05:32:59;1.38;;;1.27;;
68479;SDS011;55469;48.934;12.050;2022-09-09T05:35:25;1.40;;;1.30;;
68479;SDS011;55469;48.934;12.050;2022-09-09T05:37:51;1.58;;;1.48;;
68479;SDS011;55469;48.934;12.050;2022-09-09T05:40:17;1.40;;;1.30;;
68479;SDS011;55469;48.934;12.050;2022-09-09T05:42:43;1.40;;;1.30;;
68479;SDS011;55469;48.934;12.050;2022-09-09T05:45:09;3.10;;;2.80;;
68479;SDS011;55469;48.934;12.050;2022-09-09T05:47:35;2.78;;;2.58;;
68479;SDS011;55469;48.934;12.050;2022-09-09T05:50:02;3.15;;;2.85;;
68479;SDS011;55469;48.934;12.050;2022-09-09T05:52:29;3.08;;;2.78;;
68479;SDS011;55469;48.934;12.050;2022-09-09T05:54:55;2.40;;;2.20;;
68479;SDS011;55469;48.934;12.050;2022-09-09T05:57:22;2.00;;;1.80;;
68479;SDS011;55469;48.934;12.050;2022-09-09T05:59:47;2.00;;;1.80;;
68479;SDS011;55469;48.934;12.050;2022-09-09T06:02:14;2.40;;;1.60;;
68479;SDS011;55469;48.934;12.050;2022-09-09T06:04:40;2.42;;;2.20;;
68479;SDS011;55469;48.934;12.050;2022-09-09T06:07:06;1.90;;;1.50;;
68479;SDS011;55469;48.934;12.050;2022-09-09T06:09:32;2.92;;;2.63;;
68479;SDS011;55469;48.934;12.050;2022-09-09T06:11:58;2.72;;;2.47;;
68479;SDS011;55469;48.934;12.050;2022-09-09T06:14:23;1.63;;;1.50;;
68479;SDS011;55469;48.934;12.050;2022-09-09T06:16:50;2.35;;;1.70;;
68479;SDS011;55469;48.934;12.050;2022-09-09T06:19:16;3.58;;;2.72;;
68479;SDS011;55469;48.934;12.050;2022-09-09T06:21:42;2.13;;;1.80;;
68479;SDS011;55469;48.934;12.050;2022-09-09T06:24:09;3.10;;;2.10;;
68479;SDS011;55469;48.934;12.050;2022-09-09T06:26:38;1.90;;;1.80;;
68479;SDS011;55469;48.934;12.050;2022-09-09T06:29:06;2.13;;;1.90;;
68479;SDS011;55469;48.934;12.050;2022-09-09T06:31:33;4.40;;;1.60;;
68479;SDS011;55469;48.934;12.050;2022-09-09T06:34:02;2.05;;;1.90;;
68479;SDS011;55469;48.934;12.050;2022-09-09T06:36:31;3.50;;;2.70;;
68479;SDS011;55469;48.934;12.050;2022-09-09T06:39:02;3.00;;;2.55;;
68479;SDS011;55469;48.934;12.050;2022-09-09T06:41:29;3.10;;;2.63;;
68479;SDS011;55469;48.934;12.050;2022-09-09T06:43:56;2.55;;;2.25;;
68479;SDS011;55469;48.934;12.050;2022-09-09T06:46:23;2.45;;;1.70;;
68479;SDS011;55469;48.934;12.050;2022-09-09T06:48:55;2.05;;;1.73;;
68479;SDS011;55469;48.934;12.050;2022-09-09T06:51:22;2.03;;;1.83;;
68479;SDS011;55469;48.934;12.050;2022-09-09T06:53:51;1.73;;;1.52;;
68479;SDS011;55469;48.934;12.050;2022-09-09T06:59:05;2.65;;;1.70;;
68479;SDS011;55469;48.934;12.050;2022-09-09T07:01:36;1.45;;;1.35;;
68479;SDS011;55469;48.934;12.050;2022-09-09T07:06:38;1.48;;;1.38;;
68479;SDS011;55469;48.934;12.050;2022-09-09T07:09:08;1.52;;;1.42;;
68479;SDS011;55469;48.934;12.050;2022-09-09T07:11:38;1.70;;;1.60;;
68479;SDS011;55469;48.934;12.050;2022-09-09T07:14:07;1.55;;;1.40;;
68479;SDS011;55469;48.934;12.050;2022-09-09T07:16:33;1.58;;;1.48;;
68479;SDS011;55469;48.934;12.050;2022-09-09T07:19:01;2.30;;;1.90;;
68479;SDS011;55469;48.934;12.050;2022-09-09T07:21:29;1.50;;;1.40;;
68479;SDS011;55469;48.934;12.050;2022-09-09T07:23:56;1.75;;;1.50;;
68479;SDS011;55469;48.934;12.050;2022-09-09T07:26:22;1.50;;;1.40;;
68479;SDS011;55469;48.934;12.050;2022-09-09T07:28:51;1.50;;;1.40;;
68479;SDS011;55469;48.934;12.050;2022-09-09T07:31:19;1.98;;;1.77;;
68479;SDS011;55469;48.934;12.050;2022-09-09T07:33:55;2.45;;;2.25;;
68479;SDS011;55469;48.934;12.050;2022-09-09T07:36:23;3.45;;;2.80;;
68479;SDS011;55469;48.934;12.050;2022-09-09T07:38:55;3.08;;;2.63;;
68479;SDS011;55469;48.934;12.050;2022-09-09T07:41:28;3.42;;;2.92;;
68479;SDS011;55469;48.934;12.050;2022-09-09T07:44:10;3.30;;;2.47;;
68479;SDS011;55469;48.934;12.050;2022-09-09T07:46:42;2.40;;;2.20;;
68479;SDS011;55469;48.934;12.050;2022-09-09T07:49:10;3.20;;;2.90;;
68479;SDS011;55469;48.934;12.050;2022-09-09T07:51:38;3.10;;;2.83;;
68479;SDS011;55469;48.934;12.050;2022-09-09T07:54:07;2.35;;;2.15;;
68479;SDS011;55469;48.934;12.050;2022-09-09T07:56:36;2.90;;;2.58;;
68479;SDS011;55469;48.934;12.050;2022-09-09T07:59:04;2.45;;;1.80;;
68479;SDS011;55469;48.934;12.050;2022-09-09T08:01:35;2.17;;;1.98;;
68479;SDS011;55469;48.934;12.050;2022-09-09T08:04:13;2.15;;;1.95;;
68479;SDS011;55469;48.934;12.050;2022-09-09T08:06:42;1.40;;;1.30;;
68479;SDS011;55469;48.934;12.050;2022-09-09T08:09:14;1.83;;;1.73;;
68479;SDS011;55469;48.934;12.050;2022-09-09T08:11:40;1.65;;;1.40;;
68479;SDS011;55469;48.934;12.050;2022-09-09T08:14:08;1.60;;;1.48;;
68479;SDS011;55469;48.934;12.050;2022-09-09T08:16:37;1.67;;;1.55;;
68479;SDS011;55469;48.934;12.050;2022-09-09T08:19:06;1.70;;;1.60;;
68479;SDS011;55469;48.934;12.050;2022-09-09T08:21:34;1.88;;;1.70;;
68479;SDS011;55469;48.934;12.050;2022-09-09T08:24:02;2.05;;;1.85;;
68479;SDS011;55469;48.934;12.050;2022-09-09T08:26:34;1.55;;;1.45;;
68479;SDS011;55469;48.934;12.050;2022-09-09T08:29:03;1.40;;;1.30;;
68479;SDS011;55469;48.934;12.050;2022-09-09T08:31:35;1.42;;;1.33;;
68479;SDS011;55469;48.934;12.050;2022-09-09T08:34:04;1.52;;;1.33;;
68479;SDS011;55469;48.934;12.050;2022-09-09T08:36:33;1.00;;;1.00;;
68479;SDS011;55469;48.934;12.050;2022-09-09T08:39:08;1.92;;;1.38;;
68479;SDS011;55469;48.934;12.050;2022-09-09T08:47:49;1.50;;;1.27;;
68479;SDS011;55469;48.934;12.050;2022-09-09T08:50:27;1.13;;;1.10;;
68479;SDS011;55469;48.934;12.050;2022-09-09T08:53:11;1.30;;;1.20;;
68479;SDS011;55469;48.934;12.050;2022-09-09T08:55:48;1.10;;;1.10;;
68479;SDS011;55469;48.934;12.050;2022-09-09T08:58:24;1.67;;;1.58;;
68479;SDS011;55469;48.934;12.050;2022-09-09T09:03:44;1.50;;;1.40;;
68479;SDS011;55469;48.934;12.050;2022-09-09T09:06:35;1.20;;;1.10;;
68479;SDS011;55469;48.934;12.050;2022-09-09T09:12:44;1.27;;;1.10;;
68479;SDS011;55469;48.934;12.050;2022-09-09T09:15:17;1.38;;;1.27;;
68479;SDS011;55469;48.934;12.050;2022-09-09T09:17:49;1.77;;;1.20;;
68479;SDS011;55469;48.934;12.050;2022-09-09T09:20:16;1.65;;;1.00;;
68479;SDS011;55469;48.934;12.050;2022-09-09T09:22:49;1.50;;;1.40;;
68479;SDS011;55469;48.934;12.050;2022-09-09T09:25:21;0.90;;;0.90;;
68479;SDS011;55469;48.934;12.050;2022-09-09T09:28:07;1.58;;;1.05;;
68479;SDS011;55469;48.934;12.050;2022-09-09T09:36:13;1.38;;;1.05;;
68479;SDS011;55469;48.934;12.050;2022-09-09T09:38:51;0.93;;;0.93;;
68479;SDS011;55469;48.934;12.050;2022-09-09T09:41:30;1.38;;;0.90;;
68479;SDS011;55469;48.934;12.050;2022-09-09T09:43:56;1.73;;;1.08;;
68479;SDS011;55469;48.934;12.050;2022-09-09T09:46:23;1.08;;;0.88;;
68479;SDS011;55469;48.934;12.050;2022-09-09T09:51:24;1.13;;;1.02;;
68479;SDS011;55469;48.934;12.050;2022-09-09T09:53:51;1.15;;;0.82;;
68479;SDS011;55469;48.934;12.050;2022-09-09T09:56:26;1.17;;;1.00;;
68479;SDS011;55469;48.934;12.050;2022-09-09T09:58:54;1.80;;;1.10;;
68479;SDS011;55469;48.934;12.050;2022-09-09T10:04:12;1.10;;;0.95;;
68479;SDS011;55469;48.934;12.050;2022-09-09T10:06:45;0.80;;;0.80;;
68479;SDS011;55469;48.934;12.050;2022-09-09T10:09:44;1.13;;;0.95;;
68479;SDS011;55469;48.934;12.050;2022-09-09T10:24:23;1.02;;;0.90;;
68479;SDS011;55469;48.934;12.050;2022-09-09T10:27:05;1.38;;;0.90;;
68479;SDS011;55469;48.934;12.050;2022-09-09T10:38:36;1.20;;;0.80;;
68479;SDS011;55469;48.934;12.050;2022-09-09T10:55:25;1.30;;;0.90;;
68479;SDS011;55469;48.934;12.050;2022-09-09T10:58:02;1.20;;;0.90;;
68479;SDS011;55469;48.934;12.050;2022-09-09T11:03:06;1.05;;;0.95;;
68479;SDS011;55469;48.934;12.050;2022-09-09T11:05:55;1.23;;;0.90;;
68479;SDS011;55469;48.934;12.050;2022-09-09T11:08:30;1.00;;;0.90;;
68479;SDS011;55469;48.934;12.050;2022-09-09T11:11:04;1.02;;;0.93;;
68479;SDS011;55469;48.934;12.050;2022-09-09T11:16:57;0.90;;;0.90;;
68479;SDS011;55469;48.934;12.050;2022-09-09T11:19:33;0.85;;;0.85;;
68479;SDS011;55469;48.934;12.050;2022-09-09T11:22:02;1.40;;;0.95;;
68479;SDS011;55469;48.934;12.050;2022-09-09T11:27:13;0.90;;;0.90;;
68479;SDS011;55469;48.934;12.050;2022-09-09T11:32:58;0.90;;;0.90;;
68479;SDS011;55469;48.934;12.050;2022-09-09T11:35:53;1.00;;;1.00;;
68479;SDS011;55469;48.934;12.050;2022-09-09T11:44:38;1.10;;;0.85;;
68479;SDS011;55469;48.934;12.050;2022-09-09T11:47:28;1.38;;;0.75;;
68479;SDS011;55469;48.934;12.050;2022-09-09T11:55:19;1.08;;;0.88;;
68479;SDS011;55469;48.934;12.050;2022-09-09T11:58:01;1.75;;;0.80;;
68479;SDS011;55469;48.934;12.050;2022-09-09T12:00:44;2.05;;;0.77;;
68479;SDS011;55469;48.934;12.050;2022-09-09T12:03:35;0.88;;;0.80;;
68479;SDS011;55469;48.934;12.050;2022-09-09T12:06:11;0.77;;;0.70;;
68479;SDS011;55469;48.934;12.050;2022-09-09T12:09:07;0.75;;;0.70;;
68479;SDS011;55469;48.934;12.050;2022-09-09T12:11:39;0.70;;;0.70;;
68479;SDS011;55469;48.934;12.050;2022-09-09T12:14:17;1.08;;;0.75;;
68479;SDS011;55469;48.934;12.050;2022-09-09T12:17:29;1.13;;;0.80;;
68479;SDS011;55469;48.934;12.050;2022-09-09T12:20:00;1.50;;;0.70;;
68479;SDS011;55469;48.934;12.050;2022-09-09T12:34:40;2.05;;;0.77;;
68479;SDS011;55469;48.934;12.050;2022-09-09T12:42:57;0.80;;;0.80;;
68479;SDS011;55469;48.934;12.050;2022-09-09T12:45:27;1.10;;;0.75;;
68479;SDS011;55469;48.934;12.050;2022-09-09T12:48:08;0.73;;;0.70;;
68479;SDS011;55469;48.934;12.050;2022-09-09T12:50:49;1.20;;;0.90;;
68479;SDS011;55469;48.934;12.050;2022-09-09T12:53:21;1.45;;;0.75;;
68479;SDS011;55469;48.934;12.050;2022-09-09T12:55:56;1.15;;;0.85;;
68479;SDS011;55469;48.934;12.050;2022-09-09T12:58:51;0.90;;;0.90;;
68479;SDS011;55469;48.934;12.050;2022-09-09T13:01:23;0.75;;;0.75;;
68479;SDS011;55469;48.934;12.050;2022-09-09T13:03:58;1.83;;;0.85;;
68479;SDS011;55469;48.934;12.050;2022-09-09T13:06:25;0.60;;;0.60;;
68479;SDS011;55469;48.934;12.050;2022-09-09T13:08:54;0.75;;;0.68;;
68479;SDS011;55469;48.934;12.050;2022-09-09T13:11:31;0.85;;;0.73;;
68479;SDS011;55469;48.934;12.050;2022-09-09T13:14:04;1.55;;;0.55;;
68479;SDS011;55469;48.934;12.050;2022-09-09T13:16:40;1.23;;;0.90;;
68479;SDS011;55469;48.934;12.050;2022-09-09T13:19:09;0.50;;;0.50;;
68479;SDS011;55469;48.934;12.050;2022-09-09T13:24:06;1.60;;;0.85;;
68479;SDS011;55469;48.934;12.050;2022-09-09T13:27:03;0.80;;;0.80;;
68479;SDS011;55469;48.934;12.050;2022-09-09T13:29:54;0.82;;;0.80;;
68479;SDS011;55469;48.934;12.050;2022-09-09T13:32:21;0.85;;;0.73;;
68479;SDS011;55469;48.934;12.050;2022-09-09T13:34:50;0.85;;;0.85;;
68479;SDS011;55469;48.934;12.050;2022-09-09T13:37:32;1.42;;;0.70;;
68479;SDS011;55469;48.934;12.050;2022-09-09T13:40:01;0.73;;;0.63;;
68479;SDS011;55469;48.934;12.050;2022-09-09T13:42:31;2.85;;;0.95;;
68479;SDS011;55469;48.934;12.050;2022-09-09T13:45:01;0.90;;;0.70;;
68479;SDS011;55469;48.934;12.050;2022-09-09T13:47:33;0.80;;;0.80;;
68479;SDS011;55469;48.934;12.050;2022-09-09T13:52:48;1.45;;;0.90;;
68479;SDS011;55469;48.934;12.050;2022-09-09T13:55:18;1.20;;;0.90;;
68479;SDS011;55469;48.934;12.050;2022-09-09T13:57:50;0.95;;;0.80;;
68479;SDS011;55469;48.934;12.050;2022-09-09T14:00:20;2.05;;;0.90;;
68479;SDS011;55469;48.934;12.050;2022-09-09T14:02:47;0.80;;;0.70;;
68479;SDS011;55469;48.934;12.050;2022-09-09T14:05:14;0.90;;;0.80;;
68479;SDS011;55469;48.934;12.050;2022-09-09T14:07:40;1.08;;;0.80;;
68479;SDS011;55469;48.934;12.050;2022-09-09T14:10:08;0.93;;;0.90;;
68479;SDS011;55469;48.934;12.050;2022-09-09T14:12:35;1.15;;;0.82;;
68479;SDS011;55469;48.934;12.050;2022-09-09T14:15:07;0.63;;;0.60;;
68479;SDS011;55469;48.934;12.050;2022-09-09T14:17:35;1.42;;;0.90;;
68479;SDS011;55469;48.934;12.050;2022-09-09T14:20:05;1.15;;;0.80;;
68479;SDS011;55469;48.934;12.050;2022-09-09T14:22:34;0.60;;;0.60;;
68479;SDS011;55469;48.934;12.050;2022-09-09T14:25:01;1.10;;;0.80;;
68479;SDS011;55469;48.934;12.050;2022-09-09T14:27:27;1.52;;;0.77;;
68479;SDS011;55469;48.934;12.050;2022-09-09T14:29:53;1.15;;;0.90;;
68479;SDS011;55469;48.934;12.050;2022-09-09T14:32:19;1.95;;;0.70;;
68479;SDS011;55469;48.934;12.050;2022-09-09T14:34:46;2.17;;;0.82;;
68479;SDS011;55469;48.934;12.050;2022-09-09T14:37:14;0.60;;;0.60;;
68479;SDS011;55469;48.934;12.050;2022-09-09T14:39:41;1.48;;;0.65;;
68479;SDS011;55469;48.934;12.050;2022-09-09T14:42:09;0.60;;;0.60;;
68479;SDS011;55469;48.934;12.050;2022-09-09T14:44:37;0.85;;;0.70;;
68479;SDS011;55469;48.934;12.050;2022-09-09T14:47:06;0.60;;;0.60;;
68479;SDS011;55469;48.934;12.050;2022-09-09T14:49:33;0.88;;;0.70;;
68479;SDS011;55469;48.934;12.050;2022-09-09T14:52:01;0.60;;;0.60;;
68479;SDS011;55469;48.934;12.050;2022-09-09T14:54:27;0.98;;;0.68;;
68479;SDS011;55469;48.934;12.050;2022-09-09T14:56:53;1.10;;;1.00;;
68479;SDS011;55469;48.934;12.050;2022-09-09T14:59:19;1.67;;;0.70;;
68479;SDS011;55469;48.934;12.050;2022-09-09T15:01:45;0.70;;;0.70;;
68479;SDS011;55469;48.934;12.050;2022-09-09T15:04:11;1.00;;;0.80;;
68479;SDS011;55469;48.934;12.050;2022-09-09T15:06:39;1.92;;;0.80;;
68479;SDS011;55469;48.934;12.050;2022-09-09T15:09:07;1.10;;;0.60;;
68479;SDS011;55469;48.934;12.050;2022-09-09T15:11:34;1.13;;;0.60;;
68479;SDS011;55469;48.934;12.050;2022-09-09T15:14:05;0.57;;;0.57;;
68479;SDS011;55469;48.934;12.050;2022-09-09T15:16:32;1.38;;;0.80;;
68479;SDS011;55469;48.934;12.050;2022-09-09T15:18:59;2.60;;;0.75;;
68479;SDS011;55469;48.934;12.050;2022-09-09T15:21:27;0.70;;;0.70;;
68479;SDS011;55469;48.934;12.050;2022-09-09T15:23:59;1.42;;;0.80;;
68479;SDS011;55469;48.934;12.050;2022-09-09T15:26:25;0.73;;;0.60;;
68479;SDS011;55469;48.934;12.050;2022-09-09T15:28:52;1.45;;;0.70;;
68479;SDS011;55469;48.934;12.050;2022-09-09T15:31:19;0.52;;;0.52;;
68479;SDS011;55469;48.934;12.050;2022-09-09T15:33:48;0.77;;;0.70;;
68479;SDS011;55469;48.934;12.050;2022-09-09T15:39:05;0.88;;;0.70;;
68479;SDS011;55469;48.934;12.050;2022-09-09T15:41:34;0.60;;;0.60;;
68479;SDS011;55469;48.934;12.050;2022-09-09T15:44:00;1.27;;;0.68;;
68479;SDS011;55469;48.934;12.050;2022-09-09T15:46:28;0.60;;;0.60;;
68479;SDS011;55469;48.934;12.050;2022-09-09T15:48:57;1.13;;;0.70;;
68479;SDS011;55469;48.934;12.050;2022-09-09T15:51:31;0.70;;;0.70;;
68479;SDS011;55469;48.934;12.050;2022-09-09T15:53:58;1.00;;;0.60;;
68479;SDS011;55469;48.934;12.050;2022-09-09T15:56:25;1.23;;;0.60;;
68479;SDS011;55469;48.934;12.050;2022-09-09T15:58:52;0.70;;;0.60;;
68479;SDS011;55469;48.934;12.050;2022-09-09T16:01:20;0.80;;;0.60;;
68479;SDS011;55469;48.934;12.050;2022-09-09T16:03:46;0.80;;;0.65;;
68479;SDS011;55469;48.934;12.050;2022-09-09T16:06:13;0.50;;;0.50;;
68479;SDS011;55469;48.934;12.050;2022-09-09T16:08:40;0.73;;;0.73;;
68479;SDS011;55469;48.934;12.050;2022-09-09T16:11:12;0.65;;;0.60;;
68479;SDS011;55469;48.934;12.050;2022-09-09T16:13:44;0.73;;;0.60;;
68479;SDS011;55469;48.934;12.050;2022-09-09T16:16:10;0.50;;;0.50;;
68479;SDS011;55469;48.934;12.050;2022-09-09T16:18:38;1.08;;;0.55;;
68479;SDS011;55469;48.934;12.050;2022-09-09T16:21:07;0.50;;;0.50;;
68479;SDS011;55469;48.934;12.050;2022-09-09T16:23:42;0.60;;;0.60;;
68479;SDS011;55469;48.934;12.050;2022-09-09T16:26:12;0.75;;;0.50;;
68479;SDS011;55469;48.934;12.050;2022-09-09T16:28:40;0.63;;;0.63;;
68479;SDS011;55469;48.934;12.050;2022-09-09T16:31:07;0.50;;;0.50;;
68479;SDS011;55469;48.934;12.050;2022-09-09T16:33:36;0.60;;;0.57;;
68479;SDS011;55469;48.934;12.050;2022-09-09T16:38:59;0.90;;;0.68;;
68479;SDS011;55469;48.934;12.050;2022-09-09T16:41:29;0.95;;;0.52;;
68479;SDS011;55469;48.934;12.050;2022-09-09T16:43:57;0.70;;;0.70;;
68479;SDS011;55469;48.934;12.050;2022-09-09T16:46:25;0.60;;;0.60;;
68479;SDS011;55469;48.934;12.050;2022-09-09T16:48:53;1.83;;;0.90;;
68479;SDS011;55469;48.934;12.050;2022-09-09T16:51:22;0.80;;;0.60;;
68479;SDS011;55469;48.934;12.050;2022-09-09T16:53:52;0.80;;;0.68;;
68479;SDS011;55469;48.934;12.050;2022-09-09T16:56:20;0.82;;;0.63;;
68479;SDS011;55469;48.934;12.050;2022-09-09T16:58:50;0.60;;;0.60;;
68479;SDS011;55469;48.934;12.050;2022-09-09T17:01:20;1.10;;;0.70;;
68479;SDS011;55469;48.934;12.050;2022-09-09T17:03:54;1.38;;;0.60;;
68479;SDS011;55469;48.934;12.050;2022-09-09T17:06:21;1.58;;;0.77;;
68479;SDS011;55469;48.934;12.050;2022-09-09T17:08:53;0.73;;;0.60;;
68479;SDS011;55469;48.934;12.050;2022-09-09T17:11:20;0.70;;;0.50;;
68479;SDS011;55469;48.934;12.050;2022-09-09T17:13:46;0.70;;;0.70;;
68479;SDS011;55469;48.934;12.050;2022-09-09T17:16:14;1.75;;;0.63;;
68479;SDS011;55469;48.934;12.050;2022-09-09T17:18:42;0.47;;;0.47;;
68479;SDS011;55469;48.934;12.050;2022-09-09T17:21:09;1.02;;;0.70;;
68479;SDS011;55469;48.934;12.050;2022-09-09T17:23:39;0.70;;;0.60;;
68479;SDS011;55469;48.934;12.050;2022-09-09T17:26:06;0.85;;;0.70;;
68479;SDS011;55469;48.934;12.050;2022-09-09T17:28:36;0.55;;;0.50;;
68479;SDS011;55469;48.934;12.050;2022-09-09T17:31:03;0.40;;;0.30;;
68479;SDS011;55469;48.934;12.050;2022-09-09T17:33:35;0.50;;;0.50;;
68479;SDS011;55469;48.934;12.050;2022-09-09T17:36:11;2.15;;;0.70;;
68479;SDS011;55469;48.934;12.050;2022-09-09T17:38:40;0.60;;;0.60;;
68479;SDS011;55469;48.934;12.050;2022-09-09T17:41:28;0.88;;;0.80;;
68479;SDS011;55469;48.934;12.050;2022-09-09T17:43:59;0.70;;;0.70;;
68479;SDS011;55469;48.934;12.050;2022-09-09T17:46:32;1.63;;;0.60;;
68479;SDS011;55469;48.934;12.050;2022-09-09T17:49:06;1.13;;;0.70;;
68479;SDS011;55469;48.934;12.050;2022-09-09T17:51:37;1.17;;;0.68;;
68479;SDS011;55469;48.934;12.050;2022-09-09T17:54:07;2.65;;;0.50;;
68479;SDS011;55469;48.934;12.050;2022-09-09T17:56:40;1.25;;;0.50;;
68479;SDS011;55469;48.934;12.050;2022-09-09T17:59:06;0.80;;;0.60;;
68479;SDS011;55469;48.934;12.050;2022-09-09T18:01:35;0.50;;;0.50;;